Terminal Aerodrome Forecast
Issued by NWS Albany, NY

Home | Current Version | Previous Version | Text Only | Print | Product List | Glossary On
Versions: 1 2 3 4 5 6 7 8 9 10 11 12 13 14 15 16 17 18 19 20 21
000
FTUS41 KALY 280155 AAA
TAFALB
TAF AMD
KALB 280155Z 2802/2824 29010G15KT P6SM SKC
     FM280400 28007KT P6SM SKC
     FM280700 VRB03KT P6SM SKC
     FM281400 29007KT P6SM FEW250=

USA.gov is the U.S. government's official web portal to all federal, state and local government web resources and services.